Terminal Aerodrome Forecast
Issued by NWS Dodge City, KS

Home | Current Version | Previous Version | Text Only | Print | Product List | Glossary On
Versions: 1 2 3 4 5 6 7 8 9 10 11 12 13 14
000
FTUS43 KDDC 261133
TAFDDC
TAF
KDDC 261133Z 2612/2712 35016G24KT P6SM BKN015
     FM261430 35016G24KT P6SM BKN045
     FM261800 34016G24KT P6SM SCT250
     FM262300 34011KT P6SM FEW250
     FM270200 29008KT P6SM FEW250=

USA.gov is the U.S. government's official web portal to all federal, state and local government web resources and services.